createdAt,value
2018-04-07T00:00:55.713Z,65.76
2018-04-07T00:01:56.129Z,65.95
2018-04-07T00:02:56.554Z,65.76
2018-04-07T00:03:56.981Z,65.95
2018-04-07T00:04:57.409Z,65.67
2018-04-07T00:05:57.837Z,66.14
2018-04-07T00:06:58.254Z,66.14
2018-04-07T00:07:58.679Z,66.14
2018-04-07T00:08:59.106Z,66.05
2018-04-07T00:09:59.532Z,65.67
2018-04-07T00:10:59.956Z,65.86
2018-04-07T00:12:00.380Z,66.14
2018-04-07T00:13:00.804Z,66.33
2018-04-07T00:14:01.230Z,66.05
2018-04-07T00:15:01.652Z,66.14
2018-04-07T00:16:02.078Z,66.80
2018-04-07T00:17:02.511Z,66.52
2018-04-07T00:18:02.928Z,66.33
2018-04-07T00:19:03.351Z,66.42
2018-04-07T00:20:03.776Z,66.71
2018-04-07T00:21:04.198Z,66.71
2018-04-07T00:22:04.621Z,66.61
2018-04-07T00:23:05.048Z,67.09
2018-04-07T00:24:05.472Z,67.19
2018-04-07T00:25:05.899Z,67.28
2018-04-07T00:26:06.325Z,67.19
2018-04-07T00:27:06.749Z,67.94
2018-04-07T00:28:07.169Z,67.53
2018-04-07T00:29:07.601Z,67.94
2018-04-07T00:30:08.024Z,68.01
2018-04-07T00:31:08.441Z,68.86
2018-04-07T00:32:08.869Z,68.19
2018-04-07T00:33:09.290Z,68.39
2018-04-07T00:34:09.712Z,68.67
2018-04-07T00:35:10.144Z,68.58
2018-04-07T00:36:10.567Z,69.15
2018-04-07T00:37:10.989Z,68.58
2018-04-07T00:38:11.413Z,68.86
2018-04-07T00:39:11.832Z,68.67
2018-04-07T00:40:12.263Z,68.86
2018-04-07T00:41:12.685Z,68.96
2018-04-07T00:42:13.112Z,68.77
2018-04-07T00:43:13.541Z,69.05
2018-04-07T00:44:13.958Z,68.67
2018-04-07T00:45:14.382Z,69.34
2018-04-07T00:46:14.807Z,69.43
2018-04-07T00:47:15.237Z,69.15
2018-04-07T00:48:15.656Z,69.34
2018-04-07T00:49:16.077Z,69.81
2018-04-07T00:50:16.501Z,70.19
2018-04-07T00:51:16.925Z,69.91
2018-04-07T00:52:17.347Z,70.19
2018-04-07T00:53:17.780Z,70.10
2018-04-07T00:54:18.203Z,69.91
2018-04-07T00:55:18.621Z,69.71
2018-04-07T00:56:19.049Z,69.81
2018-04-07T00:57:19.474Z,70.00
2018-04-07T00:58:19.899Z,70.10
2018-04-07T00:59:20.318Z,70.10
2018-04-07T01:00:20.743Z,70.19
2018-04-07T01:01:21.166Z,70.19
2018-04-07T01:02:21.607Z,70.10
2018-04-07T01:03:22.014Z,69.81
2018-04-07T01:04:22.441Z,70.19
2018-04-07T01:05:22.860Z,69.71
2018-04-07T01:06:23.287Z,69.71
2018-04-07T01:07:23.712Z,69.71
2018-04-07T01:08:24.132Z,69.91
2018-04-07T01:09:24.556Z,69.91
2018-04-07T01:10:24.980Z,69.91
2018-04-07T01:11:25.411Z,70.10
2018-04-07T01:12:25.829Z,70.00
2018-04-07T01:13:26.248Z,70.19
2018-04-07T01:14:26.680Z,69.81
2018-04-07T01:15:27.102Z,70.38
2018-04-07T01:16:27.521Z,70.19
2018-04-07T01:17:27.952Z,70.19
2018-04-07T01:18:28.371Z,70.29
2018-04-07T01:19:28.795Z,70.19
2018-04-07T01:20:29.240Z,70.10
2018-04-07T01:21:29.648Z,70.19
2018-04-07T01:22:30.068Z,70.19
2018-04-07T01:23:30.490Z,70.19
2018-04-07T01:24:30.915Z,70.48
2018-04-07T01:25:31.339Z,70.57
2018-04-07T01:26:31.788Z,70.57
2018-04-07T01:27:32.200Z,70.67
2018-04-07T01:28:32.609Z,70.38
2018-04-07T01:29:33.031Z,70.95
2018-04-07T01:30:33.466Z,70.48
2018-04-07T01:31:33.877Z,70.86
2018-04-07T01:32:34.317Z,70.76
2018-04-07T01:33:34.732Z,71.14
2018-04-07T01:34:35.153Z,71.14
2018-04-07T01:35:35.578Z,71.23
2018-04-07T01:36:35.998Z,71.23
2018-04-07T01:37:36.423Z,71.23
2018-04-07T01:38:36.847Z,70.95
2018-04-07T01:39:37.273Z,71.04
2018-04-07T01:40:37.700Z,70.95
2018-04-07T01:41:38.130Z,71.23
2018-04-07T01:42:38.543Z,71.04
2018-04-07T01:43:38.971Z,71.81
2018-04-07T01:44:39.386Z,71.62
2018-04-07T01:45:39.812Z,71.33
2018-04-07T01:46:40.236Z,71.43
2018-04-07T01:47:40.664Z,71.81
2018-04-07T01:48:41.083Z,71.96
2018-04-07T01:49:41.516Z,71.67
2018-04-07T01:50:41.932Z,72.34
2018-04-07T01:51:42.355Z,72.15
2018-04-07T01:52:42.776Z,71.90
2018-04-07T01:53:43.223Z,72.15
2018-04-07T01:54:43.646Z,72.72
2018-04-07T01:55:44.061Z,72.72
2018-04-07T01:56:44.471Z,72.72
2018-04-07T01:57:44.898Z,72.44
2018-04-07T01:58:45.317Z,72.56
2018-04-07T01:59:45.747Z,72.53
2018-04-07T02:00:46.162Z,72.72
2018-04-07T02:01:46.602Z,72.72
2018-04-07T02:02:47.015Z,73.48
2018-04-07T02:03:47.434Z,72.81
2018-04-07T02:04:47.862Z,73.10
2018-04-07T02:05:48.282Z,73.19
2018-04-07T02:06:48.709Z,73.29
2018-04-07T02:07:49.129Z,73.38
2018-04-07T02:08:49.549Z,73.00
2018-04-07T02:09:49.981Z,73.38
2018-04-07T02:10:50.401Z,73.67
2018-04-07T02:11:50.820Z,73.76
2018-04-07T02:12:51.248Z,73.76
2018-04-07T02:13:51.672Z,73.86
2018-04-07T02:14:52.090Z,73.57
2018-04-07T02:15:52.518Z,73.57
2018-04-07T02:16:52.938Z,73.96
2018-04-07T02:17:53.357Z,74.43
2018-04-07T02:18:53.794Z,74.43
2018-04-07T02:19:54.226Z,74.52
2018-04-07T02:20:54.632Z,74.24
2018-04-07T02:21:55.060Z,74.24
2018-04-07T02:22:55.477Z,74.43
2018-04-07T02:23:55.902Z,74.24
2018-04-07T02:24:56.330Z,74.15
2018-04-07T02:25:56.774Z,74.24
2018-04-07T02:26:57.178Z,74.24
2018-04-07T02:27:57.596Z,74.52
2018-04-07T02:28:58.013Z,74.52
2018-04-07T02:29:58.452Z,74.52
2018-04-07T02:30:58.864Z,74.52
2018-04-07T02:31:59.302Z,74.33
2018-04-07T02:32:59.729Z,74.43
2018-04-07T02:34:00.143Z,74.43
2018-04-07T02:35:00.561Z,74.81
2018-04-07T02:36:00.987Z,74.52
2018-04-07T02:37:01.403Z,74.62
2018-04-07T02:38:01.864Z,74.62
2018-04-07T02:39:02.253Z,74.81
2018-04-07T02:40:02.698Z,74.81
2018-04-07T02:41:03.107Z,74.71
2018-04-07T02:42:03.522Z,74.81
2018-04-07T02:43:03.950Z,74.62
2018-04-07T02:44:04.398Z,75.00
2018-04-07T02:45:04.800Z,74.43
2018-04-07T02:46:05.216Z,75.28
2018-04-07T02:47:05.636Z,74.62
2018-04-07T02:48:06.077Z,74.71
2018-04-07T02:49:06.531Z,74.81
2018-04-07T02:50:06.916Z,74.90
2018-04-07T02:51:07.342Z,74.81
2018-04-07T02:52:07.775Z,75.09
2018-04-07T02:53:08.180Z,75.09
2018-04-07T02:54:08.698Z,74.90
2018-04-07T02:55:09.027Z,75.00
2018-04-07T02:56:09.454Z,74.81
2018-04-07T02:57:09.887Z,74.71
2018-04-07T02:58:10.314Z,74.71
2018-04-07T02:59:10.715Z,74.62
2018-04-07T03:00:11.147Z,74.62
2018-04-07T03:01:11.563Z,74.62
2018-04-07T03:02:11.990Z,74.81
2018-04-07T03:03:12.414Z,74.33
2018-04-07T03:04:12.843Z,74.05
2018-04-07T03:05:13.259Z,74.15
2018-04-07T03:06:13.693Z,74.33
2018-04-07T03:07:14.118Z,74.43
2018-04-07T03:08:14.534Z,74.24
2018-04-07T03:09:14.963Z,74.43
2018-04-07T03:10:15.380Z,74.43
2018-04-07T03:11:15.799Z,74.24
2018-04-07T03:12:16.234Z,74.52
2018-04-07T03:13:16.653Z,74.43
2018-04-07T03:14:17.072Z,74.24
2018-04-07T03:15:17.603Z,74.62
2018-04-07T03:16:17.911Z,74.24
2018-04-07T03:17:18.338Z,74.52
2018-04-07T03:18:18.763Z,74.33
2018-04-07T03:19:19.182Z,74.15
2018-04-07T03:20:19.611Z,74.15
2018-04-07T03:21:20.033Z,74.62
2018-04-07T03:22:20.450Z,74.62
2018-04-07T03:23:20.876Z,74.52
2018-04-07T03:24:21.295Z,74.33
2018-04-07T03:25:21.734Z,74.33
2018-04-07T03:26:22.147Z,74.05
2018-04-07T03:27:22.566Z,73.96
2018-04-07T03:28:22.987Z,73.76
2018-04-07T03:29:23.418Z,73.76
2018-04-07T03:30:23.847Z,73.86
2018-04-07T03:31:24.262Z,74.05
2018-04-07T03:32:24.681Z,74.71
2018-04-07T03:33:25.103Z,74.52
2018-04-07T03:34:25.550Z,74.33
2018-04-07T03:35:25.958Z,74.62
2018-04-07T03:36:26.377Z,74.71
2018-04-07T03:37:26.809Z,74.71
2018-04-07T03:38:27.216Z,74.71
2018-04-07T03:39:27.644Z,74.81
2018-04-07T03:40:28.069Z,74.71
2018-04-07T03:41:28.496Z,74.81
2018-04-07T03:42:28.914Z,75.57
2018-04-07T03:43:29.333Z,75.38
2018-04-07T03:44:29.767Z,75.47
2018-04-07T03:45:30.184Z,75.57
2018-04-07T03:46:30.605Z,75.57
2018-04-07T03:47:31.035Z,75.47
2018-04-07T03:48:31.459Z,75.47
2018-04-07T03:49:31.875Z,75.38
2018-04-07T03:50:32.295Z,74.43
2018-04-07T03:51:32.727Z,74.81
2018-04-07T03:52:33.157Z,75.09
2018-04-07T03:53:33.586Z,75.57
2018-04-07T03:54:33.990Z,75.47
2018-04-07T03:55:34.411Z,75.47
2018-04-07T03:56:34.836Z,75.09
2018-04-07T03:57:35.257Z,75.09
2018-04-07T03:58:35.678Z,75.19
2018-04-07T03:59:36.103Z,75.19
2018-04-07T04:00:36.525Z,75.38
2018-04-07T04:01:36.950Z,75.28
2018-04-07T04:02:37.370Z,75.47
2018-04-07T04:03:37.798Z,74.62
2018-04-07T04:04:38.214Z,74.90
2018-04-07T04:05:38.643Z,74.81
2018-04-07T04:06:39.063Z,75.09
2018-04-07T04:07:39.490Z,74.81
2018-04-07T04:08:39.909Z,74.81
2018-04-07T04:09:40.340Z,74.90
2018-04-07T04:10:40.754Z,74.81
2018-04-07T04:11:41.174Z,74.81
2018-04-07T04:12:41.600Z,74.81
2018-04-07T04:13:42.029Z,74.62
2018-04-07T04:14:42.446Z,74.52
2018-04-07T04:15:42.871Z,74.71
2018-04-07T04:16:43.290Z,74.33
2018-04-07T04:17:43.712Z,74.24
2018-04-07T04:18:44.143Z,74.43
2018-04-07T04:19:44.559Z,74.33
2018-04-07T04:20:44.978Z,74.52
2018-04-07T04:21:45.405Z,74.52
2018-04-07T04:22:45.828Z,74.24
2018-04-07T04:23:46.254Z,74.05
2018-04-07T04:24:46.671Z,74.15
2018-04-07T04:25:47.106Z,74.15
2018-04-07T04:26:47.520Z,74.24
2018-04-07T04:27:47.937Z,74.15
2018-04-07T04:28:48.398Z,74.43
2018-04-07T04:29:48.785Z,74.05
2018-04-07T04:30:49.211Z,74.52
2018-04-07T04:31:49.635Z,74.05
2018-04-07T04:32:50.055Z,73.86
2018-04-07T04:33:50.477Z,74.05
2018-04-07T04:34:50.910Z,73.76
2018-04-07T04:35:51.326Z,73.86
2018-04-07T04:36:51.745Z,73.67
2018-04-07T04:37:52.169Z,74.05
2018-04-07T04:38:52.610Z,73.86
2018-04-07T04:39:53.073Z,73.76
2018-04-07T04:40:53.451Z,73.96
2018-04-07T04:41:53.864Z,74.33
2018-04-07T04:42:54.287Z,74.15
2018-04-07T04:43:54.715Z,73.67
2018-04-07T04:44:55.136Z,73.96
2018-04-07T04:45:55.564Z,73.86
2018-04-07T04:46:55.979Z,74.15
2018-04-07T04:47:56.397Z,74.05
2018-04-07T04:48:56.822Z,73.76
2018-04-07T04:49:57.245Z,73.86
2018-04-07T04:50:57.676Z,73.57
2018-04-07T04:51:58.092Z,73.57
2018-04-07T04:52:58.508Z,73.76
2018-04-07T04:53:58.932Z,73.57
2018-04-07T04:54:59.372Z,73.48
2018-04-07T04:55:59.779Z,74.05
2018-04-07T04:57:00.205Z,73.86
2018-04-07T04:58:00.629Z,73.38
2018-04-07T04:59:01.052Z,73.38
2018-04-07T05:00:01.470Z,73.38
2018-04-07T05:01:01.889Z,72.91
2018-04-07T05:02:02.326Z,72.85
2018-04-07T05:03:02.744Z,72.66
2018-04-07T05:04:03.163Z,72.19
2018-04-07T05:05:03.591Z,72.25
2018-04-07T05:06:04.012Z,72.38
2018-04-07T05:07:04.431Z,72.28
2018-04-07T05:08:04.858Z,71.90
2018-04-07T05:09:05.275Z,72.09
2018-04-07T05:10:05.702Z,72.09
2018-04-07T05:11:06.121Z,71.81
2018-04-07T05:12:06.551Z,72.47
2018-04-07T05:13:06.970Z,72.47
2018-04-07T05:14:07.392Z,72.09
2018-04-07T05:15:07.847Z,72.00
2018-04-07T05:16:08.239Z,71.90
2018-04-07T05:17:08.665Z,71.81
2018-04-07T05:18:09.095Z,72.00
2018-04-07T05:19:09.512Z,72.00
2018-04-07T05:20:09.928Z,71.90
2018-04-07T05:21:10.428Z,72.09
2018-04-07T05:22:10.802Z,72.00
2018-04-07T05:23:11.192Z,72.38
2018-04-07T05:24:11.623Z,72.28
2018-04-07T05:25:12.049Z,72.19
2018-04-07T05:26:12.500Z,72.19
2018-04-07T05:27:12.907Z,71.81
2018-04-07T05:28:13.319Z,71.81
2018-04-07T05:29:13.737Z,71.52
2018-04-07T05:30:14.166Z,71.14
2018-04-07T05:31:14.583Z,71.23
2018-04-07T05:32:15.021Z,71.52
2018-04-07T05:33:15.437Z,71.33
2018-04-07T05:34:15.853Z,71.23
2018-04-07T05:35:16.275Z,71.23
2018-04-07T05:36:16.713Z,71.14
2018-04-07T05:37:17.122Z,70.67
2018-04-07T05:38:17.544Z,70.67
2018-04-07T05:39:17.981Z,70.38
2018-04-07T05:40:18.390Z,70.48
2018-04-07T05:41:18.817Z,69.81
2018-04-07T05:42:19.238Z,70.10
2018-04-07T05:43:19.668Z,69.81
2018-04-07T05:44:20.082Z,69.81
2018-04-07T05:45:20.514Z,69.94
2018-04-07T05:46:20.930Z,69.62
2018-04-07T05:47:21.359Z,69.81
2018-04-07T05:48:21.776Z,69.62
2018-04-07T05:49:22.209Z,69.27
2018-04-07T05:50:22.646Z,69.05
2018-04-07T05:51:23.058Z,69.43
2018-04-07T05:52:23.475Z,69.43
2018-04-07T05:53:23.894Z,69.46
2018-04-07T05:54:24.326Z,69.46
2018-04-07T05:55:24.744Z,69.18
2018-04-07T05:56:25.168Z,69.24
2018-04-07T05:57:25.586Z,69.09
2018-04-07T05:58:26.020Z,68.90
2018-04-07T05:59:26.437Z,68.90
2018-04-07T06:00:26.905Z,69.18
2018-04-07T06:01:27.285Z,69.18
2018-04-07T06:02:27.712Z,68.71
2018-04-07T06:03:28.137Z,68.33
2018-04-07T06:04:28.584Z,68.13
2018-04-07T06:05:28.976Z,68.13
2018-04-07T06:06:29.413Z,68.23
2018-04-07T06:07:29.833Z,67.66
2018-04-07T06:08:30.254Z,67.76
2018-04-07T06:09:30.681Z,67.47
2018-04-07T06:10:31.111Z,66.74
2018-04-07T06:11:31.533Z,66.94
2018-04-07T06:12:31.951Z,66.74
2018-04-07T06:13:32.370Z,66.36
2018-04-07T06:14:32.798Z,66.27
2018-04-07T06:15:33.221Z,66.08
2018-04-07T06:16:33.653Z,65.60
2018-04-07T06:17:34.072Z,65.89
2018-04-07T06:18:34.492Z,65.60
2018-04-07T06:19:34.920Z,65.13
2018-04-07T06:20:35.343Z,65.22
2018-04-07T06:21:35.769Z,65.22
2018-04-07T06:22:36.195Z,65.41
2018-04-07T06:23:36.617Z,65.13
2018-04-07T06:24:37.044Z,64.94
2018-04-07T06:25:37.468Z,64.37
2018-04-07T06:26:37.895Z,64.65
2018-04-07T06:27:38.316Z,64.75
2018-04-07T06:28:38.774Z,64.27
2018-04-07T06:29:39.174Z,64.18
2018-04-07T06:30:39.590Z,64.08
2018-04-07T06:31:40.016Z,64.02
2018-04-07T06:32:40.444Z,64.18
2018-04-07T06:33:40.864Z,63.73
2018-04-07T06:34:41.291Z,64.21
2018-04-07T06:35:41.713Z,64.50
2018-04-07T06:36:42.174Z,63.45
2018-04-07T06:37:42.571Z,63.45
2018-04-07T06:38:43.003Z,63.35
2018-04-07T06:39:43.459Z,63.26
2018-04-07T06:40:43.850Z,62.69
2018-04-07T06:41:44.268Z,62.59
2018-04-07T06:42:44.693Z,62.59
2018-04-07T06:43:45.119Z,62.78
2018-04-07T06:44:45.539Z,62.78
2018-04-07T06:45:45.972Z,62.30
2018-04-07T06:46:46.404Z,62.40
2018-04-07T06:47:46.829Z,62.02
2018-04-07T06:48:47.245Z,62.21
2018-04-07T06:49:47.675Z,61.77
2018-04-07T06:50:48.103Z,61.64
2018-04-07T06:51:48.522Z,61.67
2018-04-07T06:52:48.949Z,61.58
2018-04-07T06:53:49.395Z,61.26
2018-04-07T06:54:49.800Z,61.19
2018-04-07T06:55:50.228Z,61.10
2018-04-07T06:56:50.653Z,61.00
2018-04-07T06:57:51.083Z,61.10
2018-04-07T06:58:51.502Z,61.38
2018-04-07T06:59:51.928Z,61.48
2018-04-07T07:00:52.359Z,61.10
2018-04-07T07:01:52.780Z,61.29
2018-04-07T07:02:53.219Z,61.00
2018-04-07T07:03:53.668Z,61.19
2018-04-07T07:04:54.057Z,61.00
2018-04-07T07:05:54.482Z,60.82
2018-04-07T07:06:54.921Z,60.34
2018-04-07T07:07:55.338Z,60.53
2018-04-07T07:08:55.762Z,60.34
2018-04-07T07:09:56.204Z,60.24
2018-04-07T07:10:56.612Z,59.96
2018-04-07T07:11:57.041Z,59.48
2018-04-07T07:12:57.465Z,59.48
2018-04-07T07:13:57.903Z,59.39
2018-04-07T07:14:58.321Z,59.42
2018-04-07T07:15:58.743Z,59.51
2018-04-07T07:16:59.196Z,59.51
2018-04-07T07:17:59.598Z,59.23
2018-04-07T07:19:00.035Z,58.75
2018-04-07T07:20:00.453Z,58.94
2018-04-07T07:21:00.897Z,58.37
2018-04-07T07:22:01.300Z,58.08
2018-04-07T07:23:01.723Z,57.99
2018-04-07T07:24:02.153Z,57.70
2018-04-07T07:25:02.583Z,57.51
2018-04-07T07:26:03.005Z,57.32
2018-04-07T07:27:03.432Z,57.04
2018-04-07T07:28:03.861Z,57.07
2018-04-07T07:29:04.283Z,56.68
2018-04-07T07:30:04.710Z,56.87
2018-04-07T07:31:05.151Z,56.49
2018-04-07T07:32:05.562Z,55.63
2018-04-07T07:33:05.992Z,54.78
2018-04-07T07:34:06.421Z,55.35
2018-04-07T07:35:06.851Z,54.21
2018-04-07T07:36:07.271Z,53.85
2018-04-07T07:37:07.704Z,54.14
2018-04-07T07:38:08.131Z,53.38
2018-04-07T07:39:08.555Z,52.71
2018-04-07T07:40:08.983Z,52.42
2018-04-07T07:41:09.416Z,52.26
2018-04-07T07:42:09.860Z,52.07
2018-04-07T07:43:10.269Z,51.02
2018-04-07T07:44:10.701Z,50.63
2018-04-07T07:45:12.108Z,50.54
2018-04-07T07:46:11.561Z,49.99
2018-04-07T07:47:11.981Z,49.52
2018-04-07T07:48:12.411Z,48.97
2018-04-07T07:49:12.852Z,48.11
2018-04-07T07:50:13.270Z,46.70
2018-04-07T07:51:13.704Z,46.61
2018-04-07T07:52:14.139Z,45.75
2018-04-07T07:53:14.555Z,45.37
2018-04-07T07:54:14.996Z,45.27
2018-04-07T07:55:15.423Z,45.17
2018-04-07T07:56:15.867Z,44.91
2018-04-07T07:57:16.292Z,44.34
2018-04-07T07:58:16.725Z,43.66
2018-04-07T07:59:17.207Z,43.40
2018-04-07T08:00:17.598Z,42.93
2018-04-07T08:01:18.036Z,42.35
2018-04-07T08:02:18.474Z,42.35
2018-04-07T08:03:18.898Z,41.97
2018-04-07T08:04:19.342Z,41.78
2018-04-07T08:05:19.780Z,41.58
2018-04-07T08:06:20.202Z,41.13
2018-04-07T08:07:20.643Z,40.72
2018-04-07T08:08:21.082Z,40.72
2018-04-07T08:09:21.517Z,40.65
2018-04-07T08:10:21.958Z,40.94
2018-04-07T08:11:22.400Z,40.84
2018-04-07T08:12:22.835Z,40.55
2018-04-07T08:13:23.269Z,39.89
2018-04-07T08:14:23.710Z,39.81
2018-04-07T08:15:24.150Z,39.23
2018-04-07T08:16:24.584Z,39.14
2018-04-07T08:17:25.029Z,38.30
2018-04-07T08:18:25.460Z,38.03
2018-04-07T08:19:25.894Z,37.26
2018-04-07T08:20:26.335Z,36.42
2018-04-07T08:21:26.775Z,35.65
2018-04-07T08:22:27.217Z,35.28
2018-04-07T08:23:27.654Z,35.21
2018-04-07T08:24:28.095Z,34.44
2018-04-07T08:25:28.540Z,34.25
2018-04-07T08:26:28.978Z,34.15
2018-04-07T08:27:29.432Z,34.28
2018-04-07T08:28:29.862Z,33.13
2018-04-07T08:29:30.308Z,32.34
2018-04-07T08:30:30.798Z,32.73
2018-04-07T08:31:31.204Z,32.62
2018-04-07T08:32:31.636Z,33.29
2018-04-07T08:33:32.091Z,33.31
2018-04-07T08:34:32.524Z,32.90
2018-04-07T08:35:32.972Z,33.39
2018-04-07T08:36:33.414Z,33.19
2018-04-07T08:37:33.903Z,33.17
2018-04-07T08:38:34.309Z,33.84
2018-04-07T08:39:34.777Z,33.65
2018-04-07T08:40:35.227Z,33.29
2018-04-07T08:41:35.642Z,32.73
2018-04-07T08:42:36.091Z,31.87
2018-04-07T08:43:36.550Z,31.79
2018-04-07T08:44:36.980Z,31.59
2018-04-07T08:45:37.418Z,31.58
2018-04-07T08:46:37.868Z,31.67
2018-04-07T08:47:38.313Z,31.49
2018-04-07T08:48:38.767Z,31.10
2018-04-07T08:49:39.207Z,30.54
2018-04-07T08:50:39.648Z,29.90
2018-04-07T08:51:40.142Z,28.84
2018-04-07T08:52:40.556Z,28.64
2018-04-07T08:53:40.988Z,28.92
2018-04-07T08:54:41.437Z,28.74
2018-04-07T08:55:41.879Z,29.03
2018-04-07T08:56:42.337Z,28.72
2018-04-07T08:57:42.771Z,29.11
2018-04-07T08:58:43.262Z,29.02
2018-04-07T08:59:43.663Z,28.74
2018-04-07T09:00:44.115Z,28.53
2018-04-07T09:01:44.560Z,28.55
2018-04-07T09:02:45.003Z,28.08
2018-04-07T09:03:45.455Z,27.60
2018-04-07T09:04:45.899Z,26.73
2018-04-07T09:05:46.352Z,26.93
2018-04-07T09:06:46.805Z,27.12
2018-04-07T09:07:47.234Z,27.78
2018-04-07T09:08:47.690Z,27.87
2018-04-07T09:09:48.129Z,27.95
2018-04-07T09:10:48.582Z,28.45
2018-04-07T09:11:49.021Z,27.78
2018-04-07T09:12:49.469Z,27.67
2018-04-07T09:13:49.912Z,28.05
2018-04-07T09:14:50.362Z,28.25
2018-04-07T09:15:50.816Z,28.08
2018-04-07T09:16:51.250Z,27.04
2018-04-07T09:17:51.698Z,26.46
2018-04-07T09:18:52.163Z,26.35
2018-04-07T09:19:52.592Z,26.94
2018-04-07T09:20:53.045Z,25.88
2018-04-07T09:21:53.485Z,25.96
2018-04-07T09:22:53.936Z,25.98
2018-04-07T09:23:54.377Z,25.88
2018-04-07T09:24:54.834Z,25.98
2018-04-07T09:25:55.286Z,25.90
2018-04-07T09:26:55.725Z,25.60
2018-04-07T09:27:56.196Z,25.42
2018-04-07T09:28:56.629Z,25.12
2018-04-07T09:29:57.076Z,25.51
2018-04-07T09:30:57.529Z,26.16
2018-04-07T09:31:57.979Z,25.71
2018-04-07T09:32:58.446Z,25.22
2018-04-07T09:33:58.884Z,25.04
2018-04-07T09:34:59.341Z,24.93
2018-04-07T09:35:59.778Z,25.12
2018-04-07T09:37:00.234Z,25.40
2018-04-07T09:38:00.676Z,25.69
2018-04-07T09:39:01.130Z,25.99
2018-04-07T09:40:01.590Z,25.05
2018-04-07T09:41:02.052Z,24.75
2018-04-07T09:42:02.507Z,24.74
2018-04-07T09:43:02.936Z,24.66
2018-04-07T09:44:03.410Z,24.65
2018-04-07T09:45:03.832Z,24.93
2018-04-07T09:46:04.294Z,25.12
2018-04-07T09:47:04.747Z,25.03
2018-04-07T09:48:05.188Z,25.13
2018-04-07T09:49:05.637Z,26.00
2018-04-07T09:50:06.099Z,24.85
2018-04-07T09:51:06.550Z,24.55
2018-04-07T09:52:07.001Z,24.95
2018-04-07T09:53:07.449Z,25.24
2018-04-07T09:54:07.894Z,24.29
2018-04-07T09:55:08.360Z,24.21
2018-04-07T09:56:08.807Z,23.50
2018-04-07T09:57:09.265Z,24.08
2018-04-07T09:58:09.713Z,23.99
2018-04-07T09:59:10.160Z,23.81
2018-04-07T10:00:10.625Z,23.88
2018-04-07T10:01:11.074Z,24.85
2018-04-07T10:02:11.526Z,24.76
2018-04-07T10:03:11.974Z,23.51
2018-04-07T10:04:12.445Z,24.35
2018-04-07T10:05:12.898Z,24.27
2018-04-07T10:06:13.339Z,23.90
2018-04-07T10:07:13.792Z,23.87
2018-04-07T10:08:14.260Z,24.91
2018-04-07T10:09:14.735Z,24.52
2018-04-07T10:10:15.158Z,24.07
2018-04-07T10:11:15.603Z,24.28
2018-04-07T10:12:16.067Z,23.04
2018-04-07T10:13:16.513Z,23.03
2018-04-07T10:14:16.976Z,23.03
2018-04-07T10:15:17.425Z,22.94
2018-04-07T10:16:17.871Z,22.67
2018-04-07T10:17:18.330Z,22.29
2018-04-07T10:18:18.787Z,22.19
2018-04-07T10:19:19.241Z,21.91
2018-04-07T10:20:19.697Z,22.19
2018-04-07T10:21:20.150Z,22.66
2018-04-07T10:22:20.602Z,22.76
2018-04-07T10:23:21.057Z,22.50
2018-04-07T10:24:21.510Z,22.10
2018-04-07T10:25:21.974Z,22.29
2018-04-07T10:26:22.426Z,22.40
2018-04-07T10:27:22.881Z,22.13
2018-04-07T10:28:23.346Z,20.98
2018-04-07T10:29:23.788Z,21.34
2018-04-07T10:30:24.252Z,21.83
2018-04-07T10:31:24.713Z,21.07
2018-04-07T10:32:25.169Z,21.17
2018-04-07T10:33:25.623Z,20.98
2018-04-07T10:34:26.073Z,20.21
2018-04-07T10:35:26.535Z,20.11
2018-04-07T10:36:26.999Z,20.86
2018-04-07T10:37:27.456Z,21.92
2018-04-07T10:38:27.919Z,22.20
2018-04-07T10:39:28.372Z,22.02
2018-04-07T10:40:28.827Z,21.44
2018-04-07T10:41:29.285Z,21.37
2018-04-07T10:42:29.747Z,20.87
2018-04-07T10:43:30.204Z,21.07
2018-04-07T10:44:30.669Z,21.36
2018-04-07T10:45:31.155Z,22.02
2018-04-07T10:46:31.581Z,21.53
2018-04-07T10:47:32.036Z,22.10
2018-04-07T10:48:32.514Z,22.10
2018-04-07T10:49:32.966Z,22.00
2018-04-07T10:50:33.414Z,21.71
2018-04-07T10:51:33.873Z,22.49
2018-04-07T10:52:34.392Z,22.19
2018-04-07T10:53:34.796Z,22.38
2018-04-07T10:54:35.246Z,22.29
2018-04-07T10:55:35.711Z,22.28
2018-04-07T10:56:36.168Z,22.67
2018-04-07T10:57:36.623Z,22.67
2018-04-07T10:58:37.086Z,22.57
2018-04-07T10:59:37.538Z,22.58
2018-04-07T11:00:38.009Z,22.67
2018-04-07T11:01:38.463Z,22.57
2018-04-07T11:02:38.914Z,22.85
2018-04-07T11:03:39.375Z,23.15
2018-04-07T11:04:39.833Z,22.67
2018-04-07T11:05:40.289Z,22.49
2018-04-07T11:06:40.749Z,22.39
2018-04-07T11:07:41.202Z,22.09
2018-04-07T11:08:41.662Z,22.29
2018-04-07T11:09:42.112Z,22.31
2018-04-07T11:10:42.616Z,22.31
2018-04-07T11:11:43.049Z,22.42
2018-04-07T11:12:43.490Z,21.94
2018-04-07T11:13:43.936Z,22.12
2018-04-07T11:14:44.394Z,21.82
2018-04-07T11:15:44.856Z,22.29
2018-04-07T11:16:45.313Z,22.29
2018-04-07T11:17:45.774Z,22.40
2018-04-07T11:18:46.219Z,22.31
2018-04-07T11:19:46.676Z,22.23
2018-04-07T11:20:47.139Z,21.19
2018-04-07T11:21:47.609Z,20.12
2018-04-07T11:22:48.058Z,21.36
2018-04-07T11:23:48.500Z,21.37
2018-04-07T11:24:48.970Z,22.14
2018-04-07T11:25:49.426Z,21.17
2018-04-07T11:26:49.886Z,21.83
2018-04-07T11:27:50.349Z,22.41
2018-04-07T11:28:50.805Z,22.10
2018-04-07T11:29:51.264Z,22.58
2018-04-07T11:30:51.718Z,23.16
2018-04-07T11:31:52.174Z,22.87
2018-04-07T11:32:52.638Z,23.16
2018-04-07T11:33:53.094Z,22.87
2018-04-07T11:34:53.549Z,22.77
2018-04-07T11:35:54.012Z,22.87
2018-04-07T11:36:54.469Z,22.88
2018-04-07T11:37:54.925Z,22.87
2018-04-07T11:38:55.380Z,23.35
2018-04-07T11:39:55.837Z,23.65
2018-04-07T11:40:56.294Z,23.44
2018-04-07T11:41:56.756Z,24.48
2018-04-07T11:42:57.291Z,25.13
2018-04-07T11:43:57.658Z,25.70
2018-04-07T11:44:58.179Z,26.75
2018-04-07T11:45:58.583Z,27.12
2018-04-07T11:46:59.028Z,27.40
2018-04-07T11:47:59.490Z,27.78
2018-04-07T11:48:59.922Z,28.16
2018-04-07T11:50:00.385Z,28.45
2018-04-07T11:51:00.831Z,28.72
2018-04-07T11:52:01.300Z,28.92
2018-04-07T11:53:01.747Z,29.21
2018-04-07T11:54:02.192Z,29.02
2018-04-07T11:55:02.674Z,29.88
2018-04-07T11:56:03.114Z,29.59
2018-04-07T11:57:03.521Z,29.48
2018-04-07T11:58:03.964Z,30.15
2018-04-07T11:59:04.410Z,30.35
2018-04-07T12:00:04.850Z,29.86
2018-04-07T12:01:05.301Z,30.35
2018-04-07T12:02:05.732Z,30.54
2018-04-07T12:03:06.177Z,30.25
2018-04-07T12:04:06.619Z,30.25
2018-04-07T12:05:07.043Z,30.05
2018-04-07T12:06:07.469Z,30.25
2018-04-07T12:07:07.936Z,29.97
2018-04-07T12:08:08.354Z,29.97
2018-04-07T12:09:08.820Z,29.97
2018-04-07T12:10:09.244Z,29.59
2018-04-07T12:11:09.691Z,29.88
2018-04-07T12:12:10.121Z,30.07
2018-04-07T12:13:11.348Z,29.88
2018-04-07T12:14:11.003Z,29.69
2018-04-07T12:15:11.454Z,29.69
2018-04-07T12:16:11.868Z,29.69
2018-04-07T12:17:12.326Z,29.88
2018-04-07T12:18:12.721Z,29.59
2018-04-07T12:19:13.175Z,29.49
2018-04-07T12:20:13.598Z,29.88
2018-04-07T12:21:14.052Z,29.88
2018-04-07T12:22:14.496Z,29.79
2018-04-07T12:23:14.984Z,29.88
2018-04-07T12:24:15.401Z,29.97
2018-04-07T12:25:15.906Z,29.88
2018-04-07T12:26:16.303Z,29.69
2018-04-07T12:27:16.710Z,29.97
2018-04-07T12:28:17.125Z,29.79
2018-04-07T12:29:17.564Z,29.79
2018-04-07T12:30:17.994Z,29.97
2018-04-07T12:31:18.433Z,29.97
2018-04-07T12:32:18.875Z,30.26
2018-04-07T12:33:19.375Z,29.97
2018-04-07T12:34:19.828Z,29.69
2018-04-07T12:35:20.197Z,29.79
2018-04-07T12:36:20.619Z,29.59
2018-04-07T12:37:21.112Z,29.80
2018-04-07T12:38:21.521Z,29.03
2018-04-07T12:39:21.926Z,29.22
2018-04-07T12:40:22.352Z,29.13
2018-04-07T12:41:22.799Z,29.03
2018-04-07T12:42:23.273Z,29.22
2018-04-07T12:43:23.662Z,29.32
2018-04-07T12:44:24.103Z,29.22
2018-04-07T12:45:24.564Z,29.51
2018-04-07T12:46:25.032Z,29.32
2018-04-07T12:47:25.434Z,29.13
2018-04-07T12:48:25.916Z,29.13
2018-04-07T12:49:26.326Z,29.13
2018-04-07T12:50:26.748Z,28.84
2018-04-07T12:51:27.171Z,29.03
2018-04-07T12:52:27.599Z,29.13
2018-04-07T12:53:28.060Z,29.13
2018-04-07T12:54:28.483Z,29.14
2018-04-07T12:55:28.935Z,28.95
2018-04-07T12:56:29.404Z,28.75
2018-04-07T12:57:29.855Z,28.56
2018-04-07T12:58:30.229Z,28.47